Time;durP1;ratioP1;P1;durP2;ratioP2;P2;SDS_P1;SDS_P2;PMS_P1;PMS_P2;Temp;Humidity;BMP_temperature;BMP_pressure;BME280_temperature;BME280_humidity;BME280_pressure;Samples;Min_cycle;Max_cycle;Signal;HPM_P1;HPM_P2
2022/11/25 00:00:19;;;;;;;;;2.00;1.00;;;;;13.04;100.00;100763.31;5014441;28;60234;-76
2022/11/25 00:02:44;;;;;;;;;2.67;1.67;;;;;13.07;100.00;100762.44;5011414;28;45383;-76
2022/11/25 00:05:10;;;;;;;;;2.67;1.00;;;;;13.08;100.00;100764.19;5027765;28;55050;-76
2022/11/25 00:07:35;;;;;;;;;2.67;2.00;;;;;13.09;100.00;100760.66;5001458;28;53344;-76
2022/11/25 00:10:01;;;;;;;;;5.33;1.00;;;;;13.09;100.00;100739.44;5010272;28;62016;-77
2022/11/25 00:12:27;;;;;;;;;3.00;1.00;;;;;13.14;100.00;100745.63;4985992;28;45483;-75
2022/11/25 00:14:52;;;;;;;;;3.00;2.00;;;;;13.12;100.00;100739.47;5012394;28;58911;-77
2022/11/25 00:17:17;;;;;;;;;1.33;1.33;;;;;13.14;100.00;100748.28;5002480;28;64657;-76
2022/11/25 00:19:43;;;;;;;;;1.00;1.00;;;;;13.13;100.00;100748.28;5006209;28;46466;-76
2022/11/25 00:22:08;;;;;;;;;0.00;0.00;;;;;13.16;100.00;100756.25;5007770;28;57954;-77
2022/11/25 00:24:33;;;;;;;;;2.00;1.00;;;;;13.15;100.00;100759.75;5009353;28;52810;-76
2022/11/25 00:26:59;;;;;;;;;1.67;1.00;;;;;13.15;100.00;100767.72;5013515;28;63679;-76
2022/11/25 00:29:24;;;;;;;;;4.33;1.00;;;;;13.16;100.00;100769.50;5013585;28;45819;-76
2022/11/25 00:31:49;;;;;;;;;1.67;1.00;;;;;13.11;100.00;100757.13;4998304;28;61990;-77
2022/11/25 00:34:15;;;;;;;;;1.00;1.00;;;;;13.14;100.00;100771.25;5012473;28;55274;-76
2022/11/25 00:36:40;;;;;;;;;2.67;1.00;;;;;13.11;100.00;100774.81;5011007;28;48012;-77
2022/11/25 00:39:10;;;;;;;;;3.00;1.00;;;;;13.07;100.00;100771.25;5007944;28;51634;-77
2022/11/25 00:44:35;;;;;;;;;1.00;1.00;;;;;13.04;100.00;100768.59;5008849;28;45227;-77
2022/11/25 00:47:20;;;;;;;;;5.00;2.00;;;;;13.00;100.00;100768.63;5130443;27;45840;-76
2022/11/25 00:49:47;;;;;;;;;2.00;1.00;;;;;12.96;100.00;100773.03;5099843;27;45435;-76
2022/11/25 00:52:26;;;;;;;;;0.67;0.33;;;;;12.92;100.00;100783.63;5119840;27;45501;-75
2022/11/25 00:54:52;;;;;;;;;2.00;2.00;;;;;12.84;100.00;100773.03;5102810;27;45630;-76
2022/11/25 00:57:20;;;;;;;;;4.00;1.00;;;;;12.83;100.00;100787.13;5108498;27;45700;-75
2022/11/25 00:59:46;;;;;;;;;1.00;1.00;;;;;12.81;100.00;100780.97;5105507;27;45342;-75
2022/11/25 01:02:12;;;;;;;;;1.00;1.00;;;;;12.78;100.00;100780.94;5122696;27;58314;-75
2022/11/25 01:04:37;;;;;;;;;1.00;1.00;;;;;12.75;100.00;100786.25;5100209;27;45272;-75
2022/11/25 01:07:03;;;;;;;;;1.00;1.00;;;;;12.69;100.00;100787.16;5100675;27;47735;-75
2022/11/25 01:09:29;;;;;;;;;1.00;1.00;;;;;12.67;100.00;100790.66;5112550;27;45500;-75
2022/11/25 01:11:54;;;;;;;;;1.33;0.67;;;;;12.65;100.00;100798.59;5108901;27;45382;-75
2022/11/25 01:14:21;;;;;;;;;2.33;1.00;;;;;12.62;100.00;100801.22;5106113;27;59945;-75
2022/11/25 01:16:47;;;;;;;;;1.00;1.00;;;;;12.55;100.00;100797.69;5106237;27;47736;-76
2022/11/25 01:19:12;;;;;;;;;2.33;1.00;;;;;12.54;100.00;100798.59;5112519;27;45361;-75
2022/11/25 01:21:37;;;;;;;;;3.33;1.00;;;;;12.55;100.00;100810.06;5112504;27;45666;-76
2022/11/25 01:24:04;;;;;;;;;5.00;1.00;;;;;12.49;100.00;100813.56;5112627;27;45655;-76
2022/11/25 01:26:30;;;;;;;;;3.67;1.67;;;;;12.49;100.00;100810.03;5112155;27;47457;-75
2022/11/25 01:28:57;;;;;;;;;3.33;0.00;;;;;12.47;100.00;100827.72;5112776;27;45495;-76
2022/11/25 01:31:24;;;;;;;;;0.67;0.67;;;;;12.47;100.00;100833.88;5108871;27;47264;-76
2022/11/25 01:33:56;;;;;;;;;3.00;1.00;;;;;12.46;100.00;100831.22;5110180;27;45559;-76
2022/11/25 01:36:21;;;;;;;;;2.00;1.00;;;;;12.43;100.00;100832.09;5112994;27;45788;-75
2022/11/25 01:38:52;;;;;;;;;3.00;1.00;;;;;12.40;100.00;100837.38;5109230;27;45505;-75
2022/11/25 01:41:18;;;;;;;;;2.33;0.00;;;;;12.39;100.00;100851.50;5108858;27;45314;-75
2022/11/25 01:44:02;;;;;;;;;1.67;1.67;;;;;12.38;100.00;100862.09;5113170;27;46952;-75
2022/11/25 01:46:30;;;;;;;;;2.33;1.00;;;;;12.34;100.00;100863.84;5112311;27;45736;-76
2022/11/25 01:49:01;;;;;;;;;1.00;1.00;;;;;12.32;100.00;100861.19;5101156;27;45396;-76
2022/11/25 01:51:58;;;;;;;;;0.33;0.33;;;;;12.30;100.00;100860.31;5108568;27;45603;-75
2022/11/25 01:54:27;;;;;;;;;0.67;0.67;;;;;12.27;100.00;100849.69;5103333;27;45561;-76
2022/11/25 01:57:03;;;;;;;;;0.00;0.00;;;;;12.27;100.00;100860.28;5120071;27;45925;-76
2022/11/25 01:59:32;;;;;;;;;0.00;0.00;;;;;12.23;100.00;100863.78;5094564;27;47039;-76
2022/11/25 02:01:57;;;;;;;;;1.00;1.00;;;;;12.24;100.00;100867.31;5099002;27;45440;-75
2022/11/25 02:04:27;;;;;;;;;4.00;1.00;;;;;12.20;100.00;100865.56;5099830;27;45619;-76
2022/11/25 02:06:57;;;;;;;;;0.33;0.33;;;;;12.21;100.00;100878.78;5096065;27;45384;-76
2022/11/25 02:09:22;;;;;;;;;0.67;0.67;;;;;12.20;100.00;100873.50;5097671;27;45382;-75
2022/11/25 02:11:48;;;;;;;;;4.00;1.00;;;;;12.18;100.00;100867.28;5093076;27;56801;-75
2022/11/25 02:14:14;;;;;;;;;1.33;1.00;;;;;12.18;100.00;100873.47;5107999;27;45449;-74
2022/11/25 02:16:40;;;;;;;;;2.00;0.00;;;;;12.17;100.00;100879.63;5097366;27;48966;-75
2022/11/25 02:19:30;;;;;;;;;3.00;1.67;;;;;12.16;100.00;100890.22;5104219;27;45527;-76
2022/11/25 02:21:59;;;;;;;;;3.00;1.00;;;;;12.15;100.00;100891.13;5096271;27;45477;-76
2022/11/25 02:24:27;;;;;;;;;2.67;1.00;;;;;12.13;100.00;100899.03;5090391;27;45942;-76
2022/11/25 02:26:53;;;;;;;;;3.00;1.00;;;;;12.12;100.00;100904.31;5090961;27;46601;-77
2022/11/25 02:29:19;;;;;;;;;1.00;1.00;;;;;12.09;100.00;100896.34;5095734;27;66655;-76
2022/11/25 02:31:48;;;;;;;;;2.67;1.67;;;;;12.07;100.00;100902.53;5096558;27;45379;-76
2022/11/25 02:34:14;;;;;;;;;1.00;0.00;;;;;12.07;100.00;100907.81;5091152;27;45502;-75
2022/11/25 02:36:39;;;;;;;;;4.00;1.00;;;;;12.05;100.00;100906.94;5089958;27;64573;-75
2022/11/25 02:39:06;;;;;;;;;1.33;1.33;;;;;12.04;100.00;100913.09;5095199;27;63891;-75
2022/11/25 02:41:34;;;;;;;;;4.00;0.00;;;;;12.05;100.00;100914.88;5106820;27;45449;-75
2022/11/25 02:44:00;;;;;;;;;3.33;1.00;;;;;12.03;100.00;100931.59;5093186;27;45408;-75
2022/11/25 02:46:27;;;;;;;;;1.00;1.00;;;;;12.00;100.00;100923.66;5110030;27;46027;-76
2022/11/25 02:48:54;;;;;;;;;1.00;1.00;;;;;11.99;100.00;100924.53;5092076;27;45335;-76
2022/11/25 02:51:22;;;;;;;;;5.33;1.00;;;;;11.97;100.00;100927.16;5090869;27;45408;-76
2022/11/25 02:53:48;;;;;;;;;1.33;0.67;;;;;11.98;100.00;100933.31;5090110;27;45279;-76
2022/11/25 02:56:15;;;;;;;;;0.67;0.00;;;;;11.97;100.00;100931.56;5090188;27;45804;-74
2022/11/25 02:58:41;;;;;;;;;1.00;0.00;;;;;11.96;100.00;100929.81;5094233;27;45414;-75
2022/11/25 03:01:07;;;;;;;;;1.00;1.00;;;;;11.92;100.00;100936.81;5109454;27;45503;-74
2022/11/25 03:03:32;;;;;;;;;3.67;0.33;;;;;11.89;100.00;100936.81;5086827;27;45576;-74
2022/11/25 03:05:57;;;;;;;;;0.67;0.33;;;;;11.88;100.00;100939.44;5096777;27;68128;-76
2022/11/25 03:08:23;;;;;;;;;2.33;0.00;;;;;11.86;100.00;100942.06;5090567;27;45318;-76
2022/11/25 03:10:48;;;;;;;;;0.67;0.67;;;;;11.81;100.00;100938.47;5096403;27;45595;-75
2022/11/25 03:13:13;;;;;;;;;1.00;0.67;;;;;11.83;100.00;100951.78;5092624;27;60888;-76
2022/11/25 03:15:39;;;;;;;;;1.00;1.00;;;;;11.81;100.00;100951.69;5091355;27;46576;-75
2022/11/25 03:18:06;;;;;;;;;2.33;1.00;;;;;11.80;100.00;100944.63;5097618;27;45484;-75
2022/11/25 03:20:32;;;;;;;;;2.00;0.00;;;;;11.76;100.00;100950.78;5113349;27;45695;-75
2022/11/25 03:22:57;;;;;;;;;0.67;0.67;;;;;11.80;100.00;100965.81;5098007;27;45755;-75
2022/11/25 03:25:22;;;;;;;;;2.00;1.00;;;;;11.80;100.00;100971.09;5096499;27;59114;-75
2022/11/25 03:27:48;;;;;;;;;0.67;0.67;;;;;11.76;100.00;100964.88;5092418;27;63499;-75
2022/11/25 03:30:21;;;;;;;;;2.00;1.00;;;;;11.76;100.00;100979.88;5093481;27;59007;-76
2022/11/25 03:32:47;;;;;;;;;3.00;0.00;;;;;11.79;100.00;100994.03;5112742;27;45658;-75
2022/11/25 03:35:13;;;;;;;;;1.67;0.00;;;;;11.76;100.00;100986.03;5095728;27;54407;-75
2022/11/25 03:37:39;;;;;;;;;2.00;0.00;;;;;11.75;100.00;100997.50;5093830;27;45378;-75
2022/11/25 03:40:05;;;;;;;;;0.00;0.00;;;;;11.74;100.00;100997.50;5092768;27;45307;-75
2022/11/25 03:42:31;;;;;;;;;2.00;1.00;;;;;11.74;100.00;101008.09;5087373;27;47598;-75
2022/11/25 03:44:56;;;;;;;;;2.00;0.00;;;;;11.72;100.00;101016.00;5094439;27;45810;-75
2022/11/25 03:47:22;;;;;;;;;2.00;1.00;;;;;11.70;100.00;101015.09;5096053;27;62654;-75
2022/11/25 03:49:47;;;;;;;;;0.00;0.00;;;;;11.69;100.00;101010.69;5097086;27;53608;-75
2022/11/25 03:52:13;;;;;;;;;1.00;1.00;;;;;11.69;100.00;101009.78;5096047;27;45668;-75
2022/11/25 03:54:38;;;;;;;;;0.00;0.00;;;;;11.70;100.00;101019.50;5094440;27;45665;-75
2022/11/25 03:57:04;;;;;;;;;1.00;1.00;;;;;11.70;100.00;101016.84;5097281;27;45472;-75
2022/11/25 03:59:29;;;;;;;;;1.00;1.00;;;;;11.67;100.00;101020.38;5092643;27;45452;-75
2022/11/25 04:01:54;;;;;;;;;3.00;1.00;;;;;11.70;100.00;101030.97;5095861;27;45446;-75
2022/11/25 04:04:20;;;;;;;;;3.00;1.00;;;;;11.65;100.00;101019.44;5094241;27;50735;-75
2022/11/25 04:06:45;;;;;;;;;2.00;1.00;;;;;11.67;100.00;101030.06;5095712;27;45217;-75
2022/11/25 04:09:10;;;;;;;;;1.00;0.67;;;;;11.67;100.00;101030.06;5082621;27;62413;-77
2022/11/25 04:14:20;;;;;;;;;2.00;0.00;;;;;11.68;100.00;101032.72;5085493;27;45434;-77
2022/11/25 04:16:45;;;;;;;;;3.00;1.33;;;;;11.67;100.00;101038.88;5089399;27;61610;-76
2022/11/25 04:19:11;;;;;;;;;0.33;0.33;;;;;11.69;100.00;101041.53;5087749;27;62097;-76
2022/11/25 04:21:36;;;;;;;;;0.00;0.00;;;;;11.66;100.00;101038.84;5091687;27;59591;-76
2022/11/25 04:24:02;;;;;;;;;2.00;1.00;;;;;11.67;100.00;101040.66;5089820;27;66494;-75
2022/11/25 04:26:27;;;;;;;;;2.33;1.67;;;;;11.66;100.00;101045.03;5091415;27;46295;-75
2022/11/25 04:28:52;;;;;;;;;4.00;1.00;;;;;11.63;100.00;101039.72;5088776;27;45551;-75
2022/11/25 04:31:18;;;;;;;;;3.00;1.00;;;;;11.64;100.00;101053.84;5094256;27;58201;-75
2022/11/25 04:33:43;;;;;;;;;1.00;1.00;;;;;11.64;100.00;101051.19;5091795;27;68293;-75
2022/11/25 04:36:09;;;;;;;;;1.00;1.00;;;;;11.63;100.00;101045.00;5095749;27;45322;-75
2022/11/25 04:38:34;;;;;;;;;1.67;0.00;;;;;11.63;100.00;101058.25;5092763;27;45428;-74
2022/11/25 04:41:00;;;;;;;;;1.67;1.00;;;;;11.64;100.00;101060.00;5086880;27;59097;-75
2022/11/25 04:43:25;;;;;;;;;2.67;1.00;;;;;11.60;100.00;101063.47;5109210;27;45641;-75
2022/11/25 04:45:51;;;;;;;;;1.00;1.00;;;;;11.61;100.00;101074.94;5086476;27;45535;-75
2022/11/25 04:48:17;;;;;;;;;7.33;2.00;;;;;11.58;100.00;101080.22;5107750;27;45584;-74
2022/11/25 04:50:42;;;;;;;;;1.00;1.00;;;;;11.55;100.00;101081.94;5091763;27;45607;-75
2022/11/25 04:53:08;;;;;;;;;1.67;1.00;;;;;11.59;100.00;101088.16;5091457;27;46514;-75
2022/11/25 04:55:33;;;;;;;;;6.67;1.67;;;;;11.60;100.00;101096.97;5095221;27;45575;-75
2022/11/25 04:57:59;;;;;;;;;7.67;1.00;;;;;11.58;100.00;101086.41;5091058;27;59464;-75
2022/11/25 05:00:24;;;;;;;;;3.00;2.00;;;;;11.61;100.00;101102.31;5092003;27;45519;-75
2022/11/25 05:02:50;;;;;;;;;7.00;1.33;;;;;11.61;100.00;101106.69;5091088;27;63743;-75
2022/11/25 05:05:15;;;;;;;;;2.00;1.00;;;;;11.59;100.00;101103.16;5092606;27;45361;-75
2022/11/25 05:07:41;;;;;;;;;3.00;1.00;;;;;11.59;100.00;101114.59;5096730;27;47124;-76
2022/11/25 05:10:07;;;;;;;;;2.00;2.00;;;;;11.55;100.00;101103.09;5097116;27;45386;-75
2022/11/25 05:12:33;;;;;;;;;0.67;0.67;;;;;11.58;100.00;101118.13;5109282;27;45846;-76
2022/11/25 05:14:58;;;;;;;;;4.00;2.00;;;;;11.55;100.00;101112.78;5109798;27;45334;-75
2022/11/25 05:17:28;;;;;;;;;2.67;0.00;;;;;11.54;100.00;101125.13;5075672;27;45722;-76
2022/11/25 05:19:53;;;;;;;;;2.00;0.00;;;;;11.51;100.00;101122.47;5095066;27;45457;-74
2022/11/25 05:22:22;;;;;;;;;2.33;1.33;;;;;11.54;100.00;101134.81;5090095;27;45815;-75
2022/11/25 05:24:47;;;;;;;;;0.67;0.67;;;;;11.53;100.00;101130.41;5095996;27;45474;-75
2022/11/25 05:27:13;;;;;;;;;2.00;0.33;;;;;11.52;100.00;101137.47;5090657;27;45546;-75
2022/11/25 05:29:38;;;;;;;;;3.00;1.67;;;;;11.52;100.00;101139.22;5092693;27;45493;-75
2022/11/25 05:32:04;;;;;;;;;3.33;2.00;;;;;11.50;100.00;101149.78;5089698;27;64826;-75
2022/11/25 05:34:30;;;;;;;;;2.67;1.00;;;;;11.48;100.00;101154.16;5114757;27;45556;-76
2022/11/25 05:36:55;;;;;;;;;3.00;1.00;;;;;11.49;100.00;101155.91;5096251;27;61896;-75
2022/11/25 05:39:21;;;;;;;;;6.33;1.33;;;;;11.48;100.00;101159.44;5092930;27;45507;-76
2022/11/25 05:41:46;;;;;;;;;4.00;1.00;;;;;11.45;100.00;101158.50;5098708;27;51584;-75
2022/11/25 05:44:12;;;;;;;;;3.33;1.00;;;;;11.46;100.00;101161.19;5091629;27;68376;-75
2022/11/25 05:46:37;;;;;;;;;2.00;2.00;;;;;11.43;100.00;101163.78;5089841;27;45283;-76
2022/11/25 05:49:02;;;;;;;;;2.67;2.67;;;;;11.46;100.00;101174.41;5095677;27;46972;-74
2022/11/25 05:51:28;;;;;;;;;2.00;0.67;;;;;11.45;100.00;101172.63;5090960;27;48697;-76
2022/11/25 05:53:54;;;;;;;;;1.00;1.00;;;;;11.44;100.00;101177.88;5092475;27;45477;-73
2022/11/25 05:56:20;;;;;;;;;1.00;1.00;;;;;11.43;100.00;101184.03;5081612;27;45514;-74
2022/11/25 05:58:45;;;;;;;;;1.00;1.00;;;;;11.39;100.00;101183.09;5091641;27;45440;-74
2022/11/25 06:01:12;;;;;;;;;3.00;1.33;;;;;11.34;100.00;101187.44;5092221;27;46725;-76
2022/11/25 06:03:38;;;;;;;;;2.00;1.00;;;;;11.33;100.00;101179.50;5096333;27;45417;-75
2022/11/25 06:06:05;;;;;;;;;3.67;2.00;;;;;11.26;100.00;101183.81;5094417;27;45517;-75
2022/11/25 06:08:31;;;;;;;;;2.33;1.00;;;;;11.24;100.00;101180.28;5097691;27;45323;-75
2022/11/25 06:10:56;;;;;;;;;2.33;1.00;;;;;11.26;100.00;101194.41;5097012;27;46538;-74
2022/11/25 06:13:22;;;;;;;;;3.00;1.67;;;;;11.24;100.00;101188.22;5096955;27;45433;-74
2022/11/25 06:15:47;;;;;;;;;0.67;0.67;;;;;11.26;100.00;101197.94;5095139;27;45530;-74
2022/11/25 06:18:14;;;;;;;;;4.67;1.00;;;;;11.21;100.00;101204.91;5088487;27;45541;-74
2022/11/25 06:20:40;;;;;;;;;1.67;1.67;;;;;11.17;100.00;101208.34;5094472;27;45544;-74
2022/11/25 06:23:06;;;;;;;;;3.67;1.67;;;;;11.12;100.00;101209.16;5087242;27;45632;-74
2022/11/25 06:25:32;;;;;;;;;3.00;2.00;;;;;11.06;100.00;101207.31;5088150;27;45467;-74
2022/11/25 06:27:57;;;;;;;;;1.67;1.33;;;;;11.04;100.00;101214.34;5096959;27;45378;-73
2022/11/25 06:30:23;;;;;;;;;5.00;2.00;;;;;11.01;100.00;101217.81;5089785;27;46365;-74
2022/11/25 06:32:48;;;;;;;;;2.00;2.00;;;;;10.97;100.00;101223.94;5096967;27;45870;-73
2022/11/25 06:35:14;;;;;;;;;7.00;1.67;;;;;10.97;100.00;101231.88;5093454;27;58509;-72
2022/11/25 06:37:39;;;;;;;;;3.00;2.00;;;;;10.94;100.00;101230.91;5092637;27;45635;-74
2022/11/25 06:40:06;;;;;;;;;2.00;1.00;;;;;10.91;100.00;101237.03;5092547;27;45817;-73
2022/11/25 06:42:31;;;;;;;;;3.00;2.00;;;;;10.92;100.00;101243.19;5093159;27;45365;-72
2022/11/25 06:44:57;;;;;;;;;4.00;1.33;;;;;10.93;100.00;101242.34;5100720;27;59958;-73
2022/11/25 06:47:22;;;;;;;;;2.00;1.00;;;;;10.93;100.00;101237.97;5093001;27;45393;-73
2022/11/25 06:49:48;;;;;;;;;1.33;1.33;;;;;10.94;100.00;101245.00;5097390;27;45811;-73
2022/11/25 06:52:13;;;;;;;;;3.00;1.33;;;;;10.92;100.00;101235.28;5088468;27;61443;-73
2022/11/25 06:54:40;;;;;;;;;1.67;1.67;;;;;10.94;100.00;101234.44;5101398;27;45460;-74
2022/11/25 06:57:10;;;;;;;;;5.00;2.00;;;;;10.95;100.00;101240.63;5096793;27;45442;-73
2022/11/25 06:59:35;;;;;;;;;2.00;1.00;;;;;10.98;100.00;101241.56;5089220;27;45993;-73
2022/11/25 07:02:01;;;;;;;;;2.00;2.00;;;;;10.98;100.00;101236.28;5209137;22;45803;-77
2022/11/25 07:04:26;;;;;;;;;5.00;2.00;;;;;10.99;100.00;101243.34;5055749;28;47072;-75
2022/11/25 07:06:52;;;;;;;;;4.00;2.67;;;;;10.95;100.00;101233.56;5072364;27;45631;-75
2022/11/25 07:09:18;;;;;;;;;5.00;1.00;;;;;11.02;100.00;101237.19;5073372;28;68776;-76
2022/11/25 07:11:44;;;;;;;;;1.00;1.00;;;;;11.01;100.00;101241.59;5059030;28;45463;-75
2022/11/25 07:14:12;;;;;;;;;2.67;2.33;;;;;11.01;100.00;101249.53;5047705;28;45581;-76
2022/11/25 07:16:39;;;;;;;;;4.00;1.33;;;;;11.07;100.00;101256.66;5053536;28;45647;-76
2022/11/25 07:19:05;;;;;;;;;2.00;0.33;;;;;11.06;100.00;101257.53;5069669;28;46490;-75
2022/11/25 07:21:32;;;;;;;;;2.00;1.00;;;;;11.05;100.00;101254.88;5058482;28;47258;-74
2022/11/25 07:23:59;;;;;;;;;1.00;0.00;;;;;11.05;100.00;101268.09;5076617;28;45402;-74
2022/11/25 07:26:29;;;;;;;;;2.00;2.00;;;;;11.04;100.00;101274.25;5076596;28;45597;-75
2022/11/25 07:28:58;;;;;;;;;2.33;1.00;;;;;11.03;100.00;101276.00;5071284;28;46276;-75
2022/11/25 07:31:26;;;;;;;;;2.00;2.00;;;;;11.06;100.00;101280.41;5045001;28;45557;-76
2022/11/25 07:33:53;;;;;;;;;1.00;1.00;;;;;11.06;100.00;101277.78;5067212;28;45433;-75
2022/11/25 07:36:18;;;;;;;;;6.33;3.00;;;;;11.06;100.00;101289.22;5054568;28;45677;-75
2022/11/25 07:38:44;;;;;;;;;3.00;2.00;;;;;11.05;100.00;101290.09;5052649;28;47368;-76
2022/11/25 07:41:20;;;;;;;;;1.00;1.00;;;;;11.07;100.00;101290.13;5075959;28;45517;-74
2022/11/25 07:43:47;;;;;;;;;2.00;1.33;;;;;11.09;100.00;101302.50;5076134;28;45410;-77
2022/11/25 07:46:18;;;;;;;;;1.33;1.00;;;;;11.11;100.00;101300.78;5055175;28;45438;-75
2022/11/25 07:48:44;;;;;;;;;1.67;1.67;;;;;11.10;100.00;101295.47;5055843;28;47833;-75
2022/11/25 07:51:15;;;;;;;;;2.67;1.33;;;;;11.15;100.00;101304.38;5050939;27;45615;-75
2022/11/25 07:53:40;;;;;;;;;3.00;2.00;;;;;11.13;100.00;101306.06;5072503;28;45477;-76
2022/11/25 07:56:06;;;;;;;;;4.00;1.00;;;;;11.15;100.00;101321.09;5053655;28;45453;-75
2022/11/25 07:58:31;;;;;;;;;1.67;1.67;;;;;11.19;100.00;101335.28;5069107;28;46655;-75
2022/11/25 08:00:56;;;;;;;;;1.00;1.00;;;;;11.17;100.00;101352.84;5074734;28;58155;-76
2022/11/25 08:03:22;;;;;;;;;2.67;1.00;;;;;11.13;100.00;101354.56;5052952;28;60364;-75
2022/11/25 08:05:47;;;;;;;;;4.67;2.00;;;;;11.15;100.00;101359.88;5072608;28;56793;-74
2022/11/25 08:08:12;;;;;;;;;2.33;2.33;;;;;11.13;100.00;101364.22;5056034;28;70714;-75
2022/11/25 08:10:41;;;;;;;;;3.67;2.67;;;;;11.12;100.00;101365.09;5065475;28;67114;-75
2022/11/25 08:13:06;;;;;;;;;2.00;2.00;;;;;11.17;100.00;101368.69;5073371;28;58649;-75
2022/11/25 08:15:31;;;;;;;;;1.67;1.67;;;;;11.16;100.00;101366.94;5069786;28;57760;-75
2022/11/25 08:17:57;;;;;;;;;1.00;1.00;;;;;11.17;100.00;101380.16;5074572;28;45421;-75
2022/11/25 08:20:22;;;;;;;;;4.00;1.00;;;;;11.18;100.00;101383.69;5072328;28;48988;-75
2022/11/25 08:22:47;;;;;;;;;7.33;2.00;;;;;11.18;100.00;101386.34;5070409;28;55037;-76
2022/11/25 08:25:13;;;;;;;;;4.00;1.33;;;;;11.21;100.00;101395.22;5074162;28;57069;-74
2022/11/25 08:27:40;;;;;;;;;2.00;2.00;;;;;11.22;100.00;101398.75;5075103;28;46136;-75
2022/11/25 08:30:06;;;;;;;;;1.00;1.00;;;;;11.24;100.00;101402.31;5054271;28;45415;-75
2022/11/25 08:32:36;;;;;;;;;4.00;2.00;;;;;11.22;100.00;101397.00;5072488;28;45514;-75
2022/11/25 08:35:01;;;;;;;;;7.00;1.00;;;;;11.27;100.00;101408.53;5072638;28;45888;-74
2022/11/25 08:37:29;;;;;;;;;2.00;2.00;;;;;11.30;100.00;101414.75;5073705;28;64278;-77
2022/11/25 08:39:54;;;;;;;;;2.00;1.00;;;;;11.27;100.00;101412.94;5070780;28;45462;-76
2022/11/25 08:42:20;;;;;;;;;7.33;2.00;;;;;11.29;100.00;101413.84;5054541;28;61386;-75
2022/11/25 08:44:50;;;;;;;;;5.67;2.00;;;;;11.32;100.00;101431.53;5071346;28;46840;-75
2022/11/25 08:47:15;;;;;;;;;5.00;2.00;;;;;11.32;100.00;101434.16;5073131;28;46269;-74
2022/11/25 08:49:41;;;;;;;;;5.00;2.00;;;;;11.32;100.00;101432.41;5073885;28;63890;-76
2022/11/25 08:52:06;;;;;;;;;4.33;1.33;;;;;11.33;100.00;101430.66;5071760;28;61095;-75
2022/11/25 08:54:31;;;;;;;;;7.67;2.00;;;;;11.36;100.00;101439.53;5072504;28;61447;-74
2022/11/25 08:56:57;;;;;;;;;5.67;2.33;;;;;11.39;100.00;101439.56;5068137;28;64923;-76
2022/11/25 08:59:23;;;;;;;;;7.00;3.00;;;;;11.39;100.00;101450.16;5074623;28;45442;-75
2022/11/25 09:01:49;;;;;;;;;4.00;1.00;;;;;11.45;100.00;101459.94;5072791;28;45339;-74
2022/11/25 09:04:14;;;;;;;;;2.67;2.00;;;;;11.45;100.00;101454.66;5070956;28;45483;-75
2022/11/25 09:06:39;;;;;;;;;10.00;3.00;;;;;11.46;100.00;101452.06;5069144;28;61456;-75
2022/11/25 09:09:05;;;;;;;;;3.33;2.00;;;;;11.51;100.00;101468.91;5051941;28;45503;-75
2022/11/25 09:11:31;;;;;;;;;2.67;2.00;;;;;11.50;100.00;101461.84;5076852;28;45633;-76
2022/11/25 09:13:56;;;;;;;;;3.67;3.00;;;;;11.52;100.00;101472.44;5076873;28;45438;-74
2022/11/25 09:16:21;;;;;;;;;2.33;1.67;;;;;11.53;100.00;101468.91;5074791;28;46934;-75
2022/11/25 09:18:47;;;;;;;;;3.33;2.00;;;;;11.57;100.00;101483.09;5059472;28;45299;-75
2022/11/25 09:21:15;;;;;;;;;1.00;1.00;;;;;11.57;100.00;101494.56;5057193;28;45636;-75
2022/11/25 09:23:41;;;;;;;;;4.00;2.00;;;;;11.55;100.00;101493.63;5075138;28;45515;-76
2022/11/25 09:26:07;;;;;;;;;4.00;1.33;;;;;11.57;100.00;101506.91;5057942;28;45959;-75
2022/11/25 09:28:33;;;;;;;;;4.67;2.00;;;;;11.55;100.00;101499.81;5042670;28;46063;-75
2022/11/25 09:30:59;;;;;;;;;4.67;3.00;;;;;11.57;100.00;101501.59;5073714;28;45659;-75
2022/11/25 09:33:24;;;;;;;;;6.33;2.67;;;;;11.55;100.00;101504.19;5077720;28;45383;-75
2022/11/25 09:35:50;;;;;;;;;2.67;2.00;;;;;11.60;100.00;101512.22;5072407;28;52214;-75
2022/11/25 09:38:15;;;;;;;;;2.33;2.00;;;;;11.60;100.00;101512.22;5073831;28;45431;-74
2022/11/25 09:40:59;;;;;;;;;3.00;2.33;;;;;11.58;100.00;101521.91;5076341;28;46178;-75
2022/11/25 09:46:44;;;;;;;;;1.67;1.67;;;;;11.62;100.00;101531.69;5075409;28;46808;-75
2022/11/25 09:49:21;;;;;;;;;4.00;2.00;;;;;11.64;100.00;101543.16;5074837;28;45322;-76
2022/11/25 09:52:20;;;;;;;;;2.67;2.33;;;;;11.65;100.00;101547.59;5074465;28;45525;-74
2022/11/25 09:55:02;;;;;;;;;3.00;1.00;;;;;11.68;100.00;101550.31;5077566;28;45454;-74
2022/11/25 09:57:58;;;;;;;;;6.33;2.00;;;;;11.71;100.00;101559.16;5074636;28;47280;-74
2022/11/25 10:00:24;;;;;;;;;4.00;1.00;;;;;11.74;100.00;101567.16;5040749;28;45500;-75
2022/11/25 10:03:30;;;;;;;;;4.00;2.67;;;;;11.77;100.00;101567.22;5055650;28;49583;-75
2022/11/25 10:06:03;;;;;;;;;4.33;2.33;;;;;11.80;100.00;101569.91;5069310;28;45485;-74
2022/11/25 10:08:37;;;;;;;;;3.67;1.33;;;;;11.84;100.00;101567.38;5073825;27;45466;-74
2022/11/25 10:11:25;;;;;;;;;4.67;2.33;;;;;11.86;100.00;101574.47;5070936;28;45465;-74
2022/11/25 10:14:09;;;;;;;;;2.33;2.00;;;;;11.85;100.00;101575.31;5060508;28;46034;-76
2022/11/25 10:16:48;;;;;;;;;2.67;2.00;;;;;11.83;100.00;101577.06;5051580;28;45630;-75
2022/11/25 10:19:16;;;;;;;;;4.00;2.00;;;;;11.88;100.00;101583.34;5057137;28;46832;-75
2022/11/25 10:21:41;;;;;;;;;8.00;2.00;;;;;11.86;100.00;101585.03;5076337;28;45570;-76
2022/11/25 10:24:14;;;;;;;;;3.33;2.00;;;;;11.87;100.00;101596.50;5075683;28;58594;-74
2022/11/25 10:26:42;;;;;;;;;2.00;1.67;;;;;11.88;100.00;101591.28;5056567;28;46398;-74
2022/11/25 10:29:15;;;;;;;;;2.67;2.00;;;;;11.94;100.00;101603.72;5072139;27;46938;-73
2022/11/25 10:31:42;;;;;;;;;5.00;2.00;;;;;11.93;100.00;101592.25;5075731;28;45463;-74
2022/11/25 10:34:30;;;;;;;;;1.00;1.00;;;;;11.97;100.00;101604.66;5056650;28;45559;-73
2022/11/25 10:36:57;;;;;;;;;5.67;2.00;;;;;11.96;100.00;101605.50;5052649;27;45556;-74
2022/11/25 10:39:25;;;;;;;;;3.00;2.00;;;;;11.98;100.00;101609.06;5053461;28;45803;-74
2022/11/25 10:41:58;;;;;;;;;5.67;2.67;;;;;11.98;100.00;101603.78;5056166;28;45568;-75
2022/11/25 10:44:29;;;;;;;;;2.67;1.00;;;;;12.03;100.00;101609.16;5070168;28;45464;-75
2022/11/25 10:47:00;;;;;;;;;2.00;2.00;;;;;12.09;100.00;101613.66;5074456;28;45316;-73
2022/11/25 10:49:55;;;;;;;;;9.33;1.00;;;;;12.13;100.00;101618.16;5067370;28;46849;-74
2022/11/25 10:52:22;;;;;;;;;2.67;2.00;;;;;12.17;100.00;101622.63;5055439;28;45500;-75
2022/11/25 10:55:08;;;;;;;;;4.67;2.00;;;;;12.20;100.00;101620.06;5072505;28;45544;-75
2022/11/25 10:57:34;;;;;;;;;4.00;1.00;;;;;12.20;100.00;101613.00;5052807;27;45717;-77
2022/11/25 11:00:00;;;;;;;;;3.00;1.67;;;;;12.27;100.00;101621.94;5074336;28;45728;-74
2022/11/25 11:02:34;;;;;;;;;3.67;1.33;;;;;12.32;100.00;101636.16;5051212;28;45617;-74
2022/11/25 11:05:17;;;;;;;;;2.33;2.00;;;;;12.36;100.00;101624.75;5076029;28;45387;-75
2022/11/25 11:07:44;;;;;;;;;5.67;2.00;;;;;12.37;100.00;101621.22;5055824;28;45625;-76
2022/11/25 11:10:22;;;;;;;;;3.67;0.33;;;;;12.45;100.00;101630.16;5067954;28;47661;-78
2022/11/25 11:13:02;;;;;;;;;4.00;1.00;;;;;12.45;100.00;101629.28;5051439;28;45301;-76
2022/11/25 11:15:29;;;;;;;;;6.00;2.00;;;;;12.51;100.00;101646.16;5076471;28;45441;-74
2022/11/25 11:17:57;;;;;;;;;3.00;2.00;;;;;12.54;100.00;101642.69;5073963;28;45517;-76
2022/11/25 11:20:30;;;;;;;;;0.67;0.67;;;;;12.56;100.00;101633.88;5074441;28;47748;-76
2022/11/25 11:23:11;;;;;;;;;4.00;2.00;;;;;12.59;100.00;101641.88;5069632;28;45486;-76
2022/11/25 11:25:42;;;;;;;;;4.00;1.00;;;;;12.62;100.00;101651.63;5051006;28;45556;-74
2022/11/25 11:28:24;;;;;;;;;1.33;1.00;;;;;12.69;100.00;101656.16;5056517;28;45303;-76